• Join FlightAware (Why Join?)
  • Login
  • US Flag 
03:53PM EDT


 

Airport Tracker/Info


-or-


 

Live Flight TrackerFlight Track Log ✈ EJA806 ✈ 09-May-2013 ✈ KSPI - KMEM

Flight Track Log - Related Links

Times and Time Zones

All times are in EDT time to prevent confusion due to time zone crossing. See the EJA806 flight status page for this flight to view local times or setup timezone preferences in your user account.

Time Position Orientation Groundspeed Altitude Reporting Facility
EDT Latitude Longitude Course Direction KTS MPH feet Rate Location/Type
03:17PM 39.8167 -89.6608 194° South 194 223 2,300  Level Kansas City Center
03:19PM 39.7578 -89.6983 206° Southwest 198 228 6,100 3,000 Climbing Kansas City Center
03:20PM 39.7044 -89.7133 192° South 216 249 8,500 2,460 Climbing Kansas City Center
03:21PM 39.6339 -89.7308 191° South 250 288 11,300 3,000 Climbing Kansas City Center
03:22PM 39.5472 -89.7547 192° South 264 304 14,700 2,460 Climbing Kansas City Center
03:23PM 39.2153 -89.8282 194° South  Level FlightAware Approximate
03:23PM 39.4692 -89.7750 191° South 281 323 16,400  Level Kansas City Center
03:24PM 39.3850 -89.7975 192° South 303 349 18,100 1,560 Climbing Kansas City Center
03:25PM 39.2997 -89.8186 191° South 309 356 19,700 1,500 Climbing Kansas City Center
03:26PM 39.2103 -89.8425 192° South 323 372 21,200 1,500 Climbing Kansas City Center
03:27PM 39.1003 -89.8728 192° South 348 400 22,800 1,440 Climbing Kansas City Center
03:28PM 38.9939 -89.8997 191° South 361 415 24,200 1,200 Climbing Kansas City Center
03:29PM 38.8942 -89.9239 191° South 370 426 25,400 1,200 Climbing Kansas City Center
03:30PM 38.7914 -89.9508 192° South 373 429 26,700 1,200 Climbing Kansas City Center
03:31PM 38.6881 -89.9758 191° South 375 432 28,000 1,140 Climbing Kansas City Center
03:32PM 38.5850 -90.0033 192° South 374 430 29,100 960 Climbing Kansas City Center
03:33PM 38.4800 -90.0292 191° South 379 436 30,100 960 Climbing Kansas City Center
03:34PM 38.3736 -90.0567 191° South 385 443 31,100 900 Climbing Kansas City Center
03:35PM 38.2683 -90.0839 191° South 385 443 32,000 420 Climbing Kansas City Center
03:36PM 38.1392 -90.1158 191° South 390 449 32,000  Level Kansas City Center
03:37PM 38.0300 -90.1442 192° South 397 457 32,000  Level Kansas City Center
03:38PM 37.9206 -90.1708 191° South 400 460 32,000  Level Kansas City Center
03:39PM 37.8114 -90.2014 192° South 401 461 32,000  Level Kansas City Center
03:40PM 37.7025 -90.2289 191° South 398 458 32,000  Level Kansas City Center
03:41PM 37.5975 -90.2714 198° South 394 453 32,000  Level Kansas City Center
03:42PM 37.4728 -90.3303 201° Southwest 397 457 32,000  Level Kansas City Center
03:43PM 37.3706 -90.3794 201° Southwest 394 453 32,000  Level Kansas City Center
03:44PM 37.2944 -90.4169 201° Southwest 404 465 32,000  Level Memphis Center
03:45PM 37.1903 -90.4636 200° South 404 465 32,000  Level Memphis Center
03:46PM 37.0881 -90.5128 201° Southwest 399 459 32,000 -300 Level Memphis Center
03:47PM 36.9858 -90.5594 200° South 399 459 31,500 -900 Descending Memphis Center
03:48PM 36.8858 -90.6058 200° South 394 453 30,300 -1,440 Descending Memphis Center
03:49PM 36.7794 -90.6522 199° South 394 453 28,700 -1,500 Descending Memphis Center
03:50PM 36.6708 -90.7011 200° South 401 461 27,300 -1,500 Descending Memphis Center
03:51PM 36.5686 -90.7497 201° Southwest 409 471 25,800 -1,500 Descending Memphis Center
03:52PM 36.4664 -90.7956 200° South 404 465 24,300 -900 Descending Memphis Center
03:53PM 36.3642 -90.8389 199° South 404 465 24,000 -180 Descending Memphis Center
03:54PM 36.2617 -90.8872 201° Southwest 399 459 24,000  Level Memphis Center
03:55PM 36.1594 -90.9353 201° Southwest 399 459 24,000 -60 Level Memphis Center
03:56PM 36.0508 -90.9450 184° South 387 445 23,900 -1,140 Descending Memphis Center
03:57PM 35.9428 -90.9133 167° South 393 452 21,800 -2,100 Descending Memphis Center
03:58PM 35.8344 -90.8844 168° South 398 458 19,700 -2,100 Descending Memphis Center
03:59PM 35.7281 -90.8583 169° South 398 458 17,600 -1,980 Descending Memphis Center
04:00PM 35.6447 -90.8347 167° South 369 425 15,800 -1,800 Descending Memphis Center
04:01PM 35.5469 -90.8086 168° South 355 409 14,000 -1,800 Descending Memphis Center
04:02PM 35.4656 -90.7675 158° South 330 380 12,200 -1,860 Descending Memphis Center
04:03PM 35.4242 -90.6628 116° Southeast 315 362 10,300 -1,140 Descending Memphis Center
04:04PM 35.3972 -90.5531 107° East 315 362 10,000 -600 Descending Memphis Center
04:05PM 35.4017 -90.4461 87° East 315 362 9,100 -1,020 Descending Memphis Center
04:06PM 35.4142 -90.3417 82° East 310 357 8,000 -1,320 Descending Memphis Center
04:07PM 35.4142 -90.2425 90° East 304 350 6,500 -1,500 Descending Memphis Center
04:08PM 35.3994 -90.1481 101° East 284 327 5,100 -780 Descending Memphis Center
04:09PM 35.3950 -90.0692 94° East 251 289 5,000 -540 Descending Memphis Center
04:10PM 35.3594 -90.0183 131° Southeast 203 234 4,100 -780 Descending Memphis Center
04:10PM 35.3500 -90.0000 122° Southeast 204 235 4,000 -120 Descending KMEM
04:11PM 35.3000 -89.9667 151° Southeast 192 221 4,000  Level KMEM
04:12PM 35.2500 -89.9833 195° South 182 209 4,000 -300 Level KMEM
04:13PM 35.2000 -89.9667 165° South 184 212 3,400 -900 Descending KMEM
04:14PM 35.1667 -89.9667 180° South 184 212 2,400 -1,020 Descending KMEM
04:15PM 35.1167 -89.9667 180° South 175 201 1,500 -780 Descending KMEM
04:16PM 35.0667 -89.9667 180° South 100 115 800 -660 Descending KMEM
04:18PM 35.0424 -89.9767 129° Southeast  Level Estimated
04:25PM 35.0424 -89.9767 129° Southeast  Level Estimated
04:26PM 35.0424 -89.9767 129° Southeast  Level Estimated
04:27PM 35.0424 -89.9767 129° Southeast  Level Estimated
04:28PM 35.0424 -89.9767 129° Southeast  Level Estimated
04:29PM 35.0424 -89.9767 129° Southeast  Level Estimated
04:30PM 35.0424 -89.9767 129° Southeast  Level Estimated
04:31PM 35.0424 -89.9767 129° Southeast  Level Estimated